Terminal Aerodrome Forecast
Issued by NWS

Home | Current Version | Previous Version | Text Only | Print | Product List | Glossary On
Versions: 1 2 3 4 5 6 7 8 9 10 11 12 13 14 15 16 17 18 19 20
000
FTUS45 KBOU 121121
TAFBJC
TAF
KBJC 121121Z 1212/1312 23005KT P6SM SKC
     FM121700 29005KT P6SM SKC
     FM121900 07005KT P6SM SKC
     FM130100 24007KT P6SM FEW220=

USA.gov is the U.S. government's official web portal to all federal, state and local government web resources and services.